createdAt,value
2023-02-18T00:02:42.606Z,1.80
2023-02-18T00:07:45.101Z,1.73
2023-02-18T00:12:46.924Z,2.50
2023-02-18T00:17:49.995Z,2.27
2023-02-18T00:22:51.699Z,2.70
2023-02-18T00:27:53.394Z,1.70
2023-02-18T00:32:56.475Z,2.03
2023-02-18T00:37:58.160Z,2.20
2023-02-18T00:43:00.073Z,1.70
2023-02-18T00:48:03.202Z,2.17
2023-02-18T00:53:04.924Z,1.70
2023-02-18T00:58:06.656Z,1.93
2023-02-18T01:03:09.737Z,2.10
2023-02-18T01:08:11.582Z,1.70
2023-02-18T01:13:13.408Z,2.10
2023-02-18T01:18:16.590Z,2.08
2023-02-18T01:23:18.508Z,2.10
2023-02-18T01:28:21.461Z,1.70
2023-02-18T01:33:24.510Z,1.73
2023-02-18T01:38:26.236Z,1.90
2023-02-18T01:43:28.158Z,1.93
2023-02-18T01:48:34.091Z,2.10
2023-02-18T01:53:39.763Z,1.73
2023-02-18T01:58:41.517Z,1.53
2023-02-18T02:03:44.606Z,2.33
2023-02-18T02:08:46.898Z,2.20
2023-02-18T02:14:07.526Z,1.60
2023-02-18T02:19:30.695Z,2.30
2023-02-18T02:24:53.775Z,1.70
2023-02-18T02:30:23.119Z,2.33
2023-02-18T02:35:26.380Z,1.97
2023-02-18T02:40:30.384Z,1.77
2023-02-18T02:45:38.713Z,2.77
2023-02-18T02:50:44.878Z,2.20
2023-02-18T02:55:46.587Z,1.97
2023-02-18T03:01:09.336Z,1.70
2023-02-18T03:06:21.683Z,1.80
2023-02-18T03:11:24.366Z,1.80
2023-02-18T03:16:28.137Z,1.70
2023-02-18T03:21:32.186Z,2.30
2023-02-18T03:26:37.482Z,1.43
2023-02-18T03:31:39.455Z,2.10
2023-02-18T03:36:42.722Z,1.67
2023-02-18T03:41:44.419Z,1.70
2023-02-18T03:46:46.125Z,1.80
2023-02-18T03:51:49.367Z,2.20
2023-02-18T03:56:51.122Z,1.97
2023-02-18T04:01:52.790Z,1.90
2023-02-18T04:06:55.860Z,1.80
2023-02-18T04:11:57.581Z,1.60
2023-02-18T04:16:59.355Z,3.20
2023-02-18T04:22:02.580Z,2.30
2023-02-18T04:27:04.368Z,2.70
2023-02-18T04:32:06.335Z,2.33
2023-02-18T04:37:09.546Z,1.67
2023-02-18T04:42:11.240Z,1.60
2023-02-18T04:47:12.992Z,1.30
2023-02-18T04:52:16.046Z,1.50
2023-02-18T04:57:17.760Z,1.90
2023-02-18T05:02:19.446Z,1.63
2023-02-18T05:07:22.484Z,2.17
2023-02-18T05:12:24.192Z,1.80
2023-02-18T05:17:26.014Z,2.37
2023-02-18T05:22:29.176Z,1.67
2023-02-18T05:27:30.974Z,2.00
2023-02-18T05:32:32.749Z,2.50
2023-02-18T05:37:35.834Z,3.20
2023-02-18T05:42:37.618Z,2.73
2023-02-18T05:47:39.453Z,3.03
2023-02-18T05:52:42.516Z,3.20
2023-02-18T05:57:44.224Z,3.50
2023-02-18T06:02:45.992Z,3.57
2023-02-18T06:07:49.046Z,3.83
2023-02-18T06:12:50.773Z,3.90
2023-02-18T06:17:52.452Z,5.33
2023-02-18T06:22:55.528Z,4.72
2023-02-18T06:27:57.331Z,5.60
2023-02-18T06:32:59.070Z,5.70
2023-02-18T06:38:02.199Z,5.20
2023-02-18T06:43:03.931Z,6.03
2023-02-18T06:48:05.673Z,5.90
2023-02-18T06:53:08.822Z,6.00
2023-02-18T06:58:10.674Z,6.73
2023-02-18T07:03:12.957Z,6.80
2023-02-18T07:08:16.130Z,6.10
2023-02-18T07:13:17.988Z,6.40
2023-02-18T07:18:19.755Z,6.20
2023-02-18T07:23:22.761Z,5.50
2023-02-18T07:28:24.450Z,5.60
2023-02-18T07:33:26.207Z,4.60
2023-02-18T07:38:29.511Z,6.00
2023-02-18T07:43:31.207Z,6.27
2023-02-18T07:48:32.904Z,10.17
2023-02-18T07:53:36.562Z,10.90
2023-02-18T07:58:38.310Z,7.30
2023-02-18T08:03:39.997Z,6.33
2023-02-18T08:08:43.021Z,7.50
2023-02-18T08:13:46.970Z,7.53
2023-02-18T08:18:49.610Z,7.23
2023-02-18T08:23:52.700Z,6.70
2023-02-18T08:28:54.430Z,6.90
2023-02-18T08:33:56.427Z,9.90
2023-02-18T08:38:59.477Z,8.50
2023-02-18T08:44:01.140Z,9.00
2023-02-18T08:49:03.782Z,9.40
2023-02-18T08:54:06.771Z,8.70
2023-02-18T08:59:08.563Z,9.60
2023-02-18T09:04:10.333Z,9.52
2023-02-18T09:09:13.428Z,9.50
2023-02-18T09:14:15.133Z,11.00
2023-02-18T09:19:16.853Z,12.03
2023-02-18T09:24:20.164Z,10.25
2023-02-18T09:29:21.995Z,11.90
2023-02-18T09:34:23.713Z,12.30
2023-02-18T09:39:26.872Z,11.27
2023-02-18T09:44:34.291Z,8.87
2023-02-18T09:49:37.634Z,6.07
2023-02-18T09:54:40.656Z,5.50
2023-02-18T09:59:42.489Z,5.50
2023-02-18T10:04:45.694Z,6.17
2023-02-18T10:09:48.786Z,4.10
2023-02-18T10:14:51.246Z,3.73
2023-02-18T10:19:53.786Z,3.30
2023-02-18T10:24:57.711Z,2.77
2023-02-18T10:30:25.624Z,2.93
2023-02-18T10:35:31.350Z,2.30
2023-02-18T10:40:37.502Z,2.13
2023-02-18T10:45:43.587Z,2.10
2023-02-18T10:50:45.472Z,2.17
2023-02-18T10:55:52.116Z,1.90
2023-02-18T11:00:53.941Z,2.80
2023-02-18T11:05:56.156Z,3.30
2023-02-18T11:10:59.244Z,3.43
2023-02-18T11:16:01.992Z,3.20
2023-02-18T11:21:05.176Z,3.17
2023-02-18T11:26:12.125Z,2.40
2023-02-18T11:31:19.990Z,1.90
2023-02-18T11:36:23.999Z,1.90
2023-02-18T11:41:32.343Z,2.07
2023-02-18T11:46:34.142Z,1.90
2023-02-18T11:51:38.802Z,1.30
2023-02-18T11:56:41.865Z,1.20
2023-02-18T12:01:45.466Z,1.80
2023-02-18T12:06:50.813Z,2.53
2023-02-18T12:11:55.141Z,2.07
2023-02-18T12:17:11.581Z,2.20
2023-02-18T12:22:16.204Z,1.80
2023-02-18T12:27:22.844Z,2.10
2023-02-18T12:32:30.671Z,2.00
2023-02-18T12:37:44.205Z,2.63
2023-02-18T12:42:52.738Z,3.20
2023-02-18T12:48:07.712Z,2.90
2023-02-18T12:53:28.885Z,3.17
2023-02-18T12:58:38.475Z,2.87
2023-02-18T13:03:58.670Z,3.10
2023-02-18T13:09:03.787Z,2.07
2023-02-18T13:14:10.805Z,2.13
2023-02-18T13:19:18.158Z,3.50
2023-02-18T13:24:25.772Z,2.03
2023-02-18T13:29:30.826Z,2.17
2023-02-18T13:34:34.263Z,2.30
2023-02-18T13:39:35.972Z,2.30
2023-02-18T13:44:57.688Z,2.67
2023-02-18T13:49:59.377Z,2.80
2023-02-18T13:55:01.108Z,2.50
2023-02-18T14:00:20.528Z,2.80
2023-02-18T14:05:22.412Z,2.70
2023-02-18T14:10:32.118Z,2.63
2023-02-18T14:15:56.396Z,2.67
2023-02-18T14:21:05.873Z,2.90
2023-02-18T14:26:08.416Z,2.53
2023-02-18T14:31:48.800Z,2.60
2023-02-18T14:36:54.989Z,2.70
2023-02-18T14:41:58.273Z,3.10
2023-02-18T14:47:14.389Z,3.20
2023-02-18T14:52:22.392Z,3.20
2023-02-18T14:57:28.154Z,2.80
2023-02-18T15:02:34.952Z,3.30
2023-02-18T15:07:36.658Z,3.00
2023-02-18T15:12:38.441Z,3.25
2023-02-18T15:17:44.714Z,5.70
2023-02-18T15:22:46.687Z,3.70
2023-02-18T15:27:51.418Z,3.93
2023-02-18T15:32:55.233Z,3.87
2023-02-18T15:37:58.172Z,3.20
2023-02-18T15:43:00.688Z,2.63
2023-02-18T15:48:04.529Z,3.30
2023-02-18T15:53:07.481Z,3.30
2023-02-18T15:58:12.286Z,3.27
2023-02-18T16:03:16.066Z,3.55
2023-02-18T16:08:23.988Z,3.90
2023-02-18T16:13:26.937Z,3.93
2023-02-18T16:18:31.480Z,3.43
2023-02-18T16:23:36.011Z,4.37
2023-02-18T16:28:41.430Z,8.00
2023-02-18T16:33:44.479Z,4.47
2023-02-18T16:38:46.275Z,4.30
2023-02-18T16:43:48.105Z,3.53
2023-02-18T16:48:52.217Z,4.90
2023-02-18T16:53:53.912Z,4.67
2023-02-18T16:58:55.626Z,4.30
2023-02-18T17:03:58.845Z,4.73
2023-02-18T17:09:00.556Z,4.53
2023-02-18T17:14:04.977Z,4.23
2023-02-18T17:19:08.175Z,6.40
2023-02-18T17:24:11.420Z,10.33
2023-02-18T17:29:13.786Z,14.27
2023-02-18T17:34:20.345Z,5.40
2023-02-18T17:39:22.174Z,3.43
2023-02-18T17:44:24.688Z,3.20
2023-02-18T17:49:27.745Z,3.67
2023-02-18T17:54:29.587Z,3.70
2023-02-18T17:59:31.359Z,4.90
2023-02-18T18:04:34.419Z,6.07
2023-02-18T18:09:36.167Z,8.20
2023-02-18T18:14:37.878Z,4.40
2023-02-18T18:19:41.162Z,4.50
2023-02-18T18:24:42.920Z,3.30
2023-02-18T18:29:44.609Z,3.13
2023-02-18T18:34:49.121Z,4.17
2023-02-18T18:39:51.061Z,4.27
2023-02-18T18:44:52.791Z,3.77
2023-02-18T18:49:55.904Z,4.70
2023-02-18T18:54:57.689Z,3.53
2023-02-18T18:59:59.584Z,3.77
2023-02-18T19:05:03.813Z,4.05
2023-02-18T19:10:06.172Z,3.37
2023-02-18T19:15:10.515Z,3.40
2023-02-18T19:20:14.335Z,5.47
2023-02-18T19:25:16.493Z,3.10
2023-02-18T19:30:25.213Z,3.37
2023-02-18T19:35:28.568Z,2.93
2023-02-18T19:40:30.663Z,3.83
2023-02-18T19:45:32.437Z,2.87
2023-02-18T19:50:35.554Z,2.90
2023-02-18T19:55:37.455Z,2.60
2023-02-18T20:00:40.471Z,3.07
2023-02-18T20:05:43.702Z,3.20
2023-02-18T20:10:45.475Z,3.80
2023-02-18T20:15:47.250Z,3.03
2023-02-18T20:20:50.331Z,2.77
2023-02-18T20:25:52.101Z,2.30
2023-02-18T20:31:03.744Z,2.23
2023-02-18T20:36:08.392Z,2.33
2023-02-18T20:41:11.807Z,1.93
2023-02-18T20:46:14.688Z,2.37
2023-02-18T20:51:18.782Z,2.40
2023-02-18T20:56:20.827Z,2.77
2023-02-18T21:01:22.640Z,2.77
2023-02-18T21:06:25.817Z,3.07
2023-02-18T21:11:27.724Z,2.63
2023-02-18T21:16:29.612Z,2.87
2023-02-18T21:21:32.819Z,3.13
2023-02-18T21:26:34.847Z,3.50
2023-02-18T21:31:37.466Z,3.20
2023-02-18T21:36:40.736Z,3.17
2023-02-18T21:41:42.581Z,2.97
2023-02-18T21:46:44.428Z,2.77
2023-02-18T21:51:57.660Z,3.00
2023-02-18T21:57:00.373Z,2.77
2023-02-18T22:02:02.477Z,2.67
2023-02-18T22:07:05.646Z,2.33
2023-02-18T22:12:07.526Z,2.20
2023-02-18T22:17:09.467Z,2.33
2023-02-18T22:22:12.715Z,1.90
2023-02-18T22:27:14.680Z,1.90
2023-02-18T22:32:16.657Z,1.83
2023-02-18T22:37:20.073Z,2.00
2023-02-18T22:42:21.922Z,2.20
2023-02-18T22:47:23.715Z,2.33
2023-02-18T22:52:26.803Z,2.20
2023-02-18T22:57:28.507Z,1.97
2023-02-18T23:02:30.272Z,2.00
2023-02-18T23:07:33.298Z,2.30
2023-02-18T23:12:35.052Z,4.50
2023-02-18T23:17:37.065Z,2.27
2023-02-18T23:22:41.918Z,2.63
2023-02-18T23:27:43.652Z,2.20
2023-02-18T23:32:45.373Z,2.40
2023-02-18T23:38:03.353Z,2.63
2023-02-18T23:43:05.015Z,2.20
2023-02-18T23:48:06.684Z,2.60
2023-02-18T23:53:09.682Z,2.90
2023-02-18T23:58:11.539Z,3.40
